sensor_id;sensor_type;location;lat;lon;timestamp;temperature;humidity
44063;DHT22;29727;47.606;19.130;2022-11-20T00:01:07;4.40;76.10
44063;DHT22;29727;47.606;19.130;2022-11-20T00:03:34;4.50;76.70
44063;DHT22;29727;47.606;19.130;2022-11-20T00:06:11;4.50;77.70
44063;DHT22;29727;47.606;19.130;2022-11-20T00:08:37;4.50;76.70
44063;DHT22;29727;47.606;19.130;2022-11-20T00:11:07;4.50;76.20
44063;DHT22;29727;47.606;19.130;2022-11-20T00:13:33;4.50;75.70
44063;DHT22;29727;47.606;19.130;2022-11-20T00:16:01;4.50;76.30
44063;DHT22;29727;47.606;19.130;2022-11-20T00:18:27;4.40;76.10
44063;DHT22;29727;47.606;19.130;2022-11-20T00:20:53;4.30;76.90
44063;DHT22;29727;47.606;19.130;2022-11-20T00:23:19;4.30;77.40
44063;DHT22;29727;47.606;19.130;2022-11-20T00:25:45;4.20;77.80
44063;DHT22;29727;47.606;19.130;2022-11-20T00:28:11;3.40;77.40
44063;DHT22;29727;47.606;19.130;2022-11-20T00:30:36;4.10;77.00
44063;DHT22;29727;47.606;19.130;2022-11-20T00:33:02;4.20;78.10
44063;DHT22;29727;47.606;19.130;2022-11-20T00:35:28;4.20;78.50
44063;DHT22;29727;47.606;19.130;2022-11-20T00:37:53;4.20;78.80
44063;DHT22;29727;47.606;19.130;2022-11-20T00:40:19;4.20;78.60
44063;DHT22;29727;47.606;19.130;2022-11-20T00:42:44;4.30;78.90
44063;DHT22;29727;47.606;19.130;2022-11-20T00:45:10;4.40;78.30
44063;DHT22;29727;47.606;19.130;2022-11-20T00:47:36;4.30;78.60
44063;DHT22;29727;47.606;19.130;2022-11-20T00:50:02;4.40;79.10
44063;DHT22;29727;47.606;19.130;2022-11-20T00:54:53;4.50;78.00
44063;DHT22;29727;47.606;19.130;2022-11-20T00:57:19;4.50;78.20
44063;DHT22;29727;47.606;19.130;2022-11-20T00:59:44;4.60;77.50
44063;DHT22;29727;47.606;19.130;2022-11-20T01:02:10;4.60;77.90
44063;DHT22;29727;47.606;19.130;2022-11-20T01:04:36;4.60;77.50
44063;DHT22;29727;47.606;19.130;2022-11-20T01:07:01;4.60;77.10
44063;DHT22;29727;47.606;19.130;2022-11-20T01:09:27;4.60;77.50
44063;DHT22;29727;47.606;19.130;2022-11-20T01:11:53;4.60;77.80
44063;DHT22;29727;47.606;19.130;2022-11-20T01:14:19;4.50;78.30
44063;DHT22;29727;47.606;19.130;2022-11-20T01:16:48;4.50;78.20
44063;DHT22;29727;47.606;19.130;2022-11-20T01:19:17;4.50;78.60
44063;DHT22;29727;47.606;19.130;2022-11-20T01:21:44;4.50;78.60
44063;DHT22;29727;47.606;19.130;2022-11-20T01:24:13;4.50;78.20
44063;DHT22;29727;47.606;19.130;2022-11-20T01:26:40;4.50;78.50
44063;DHT22;29727;47.606;19.130;2022-11-20T01:29:07;4.40;78.70
44063;DHT22;29727;47.606;19.130;2022-11-20T01:31:35;4.50;78.70
44063;DHT22;29727;47.606;19.130;2022-11-20T01:34:04;4.50;79.20
44063;DHT22;29727;47.606;19.130;2022-11-20T01:36:31;4.60;78.40
44063;DHT22;29727;47.606;19.130;2022-11-20T01:38:59;4.50;78.50
44063;DHT22;29727;47.606;19.130;2022-11-20T01:41:27;4.50;78.90
44063;DHT22;29727;47.606;19.130;2022-11-20T01:44:14;4.60;78.80
44063;DHT22;29727;47.606;19.130;2022-11-20T01:47:03;4.50;79.00
44063;DHT22;29727;47.606;19.130;2022-11-20T01:49:34;4.50;79.00
44063;DHT22;29727;47.606;19.130;2022-11-20T01:52:19;4.50;79.30
44063;DHT22;29727;47.606;19.130;2022-11-20T01:54:58;4.60;79.10
44063;DHT22;29727;47.606;19.130;2022-11-20T01:57:28;4.50;79.20
44063;DHT22;29727;47.606;19.130;2022-11-20T02:00:02;4.50;79.10
44063;DHT22;29727;47.606;19.130;2022-11-20T02:02:28;4.50;79.40
44063;DHT22;29727;47.606;19.130;2022-11-20T02:04:57;4.40;79.80
44063;DHT22;29727;47.606;19.130;2022-11-20T02:07:26;4.40;79.70
44063;DHT22;29727;47.606;19.130;2022-11-20T02:09:53;4.40;79.80
44063;DHT22;29727;47.606;19.130;2022-11-20T02:12:19;4.40;79.80
44063;DHT22;29727;47.606;19.130;2022-11-20T02:15:03;4.30;80.10
44063;DHT22;29727;47.606;19.130;2022-11-20T02:17:29;4.30;80.70
44063;DHT22;29727;47.606;19.130;2022-11-20T02:19:55;4.30;80.30
44063;DHT22;29727;47.606;19.130;2022-11-20T02:22:56;4.30;80.80
44063;DHT22;29727;47.606;19.130;2022-11-20T02:25:20;4.30;80.50
44063;DHT22;29727;47.606;19.130;2022-11-20T02:27:46;4.30;80.50
44063;DHT22;29727;47.606;19.130;2022-11-20T02:30:12;4.40;80.40
44063;DHT22;29727;47.606;19.130;2022-11-20T02:32:39;4.40;80.80
44063;DHT22;29727;47.606;19.130;2022-11-20T02:35:35;4.40;80.50
44063;DHT22;29727;47.606;19.130;2022-11-20T02:37:56;4.40;80.60
44063;DHT22;29727;47.606;19.130;2022-11-20T02:40:23;4.50;79.40
44063;DHT22;29727;47.606;19.130;2022-11-20T02:42:56;4.50;79.90
44063;DHT22;29727;47.606;19.130;2022-11-20T02:45:23;4.60;79.00
44063;DHT22;29727;47.606;19.130;2022-11-20T02:47:49;4.60;79.50
44063;DHT22;29727;47.606;19.130;2022-11-20T02:50:15;4.60;79.70
44063;DHT22;29727;47.606;19.130;2022-11-20T02:52:41;4.80;79.50
44063;DHT22;29727;47.606;19.130;2022-11-20T02:55:07;4.70;80.00
44063;DHT22;29727;47.606;19.130;2022-11-20T02:57:33;4.70;79.80
44063;DHT22;29727;47.606;19.130;2022-11-20T02:59:59;4.90;79.20
44063;DHT22;29727;47.606;19.130;2022-11-20T03:02:24;4.80;80.20
44063;DHT22;29727;47.606;19.130;2022-11-20T03:04:50;4.90;79.30
44063;DHT22;29727;47.606;19.130;2022-11-20T03:07:16;4.90;78.60
44063;DHT22;29727;47.606;19.130;2022-11-20T03:09:41;5.00;78.10
44063;DHT22;29727;47.606;19.130;2022-11-20T03:12:07;5.00;78.10
44063;DHT22;29727;47.606;19.130;2022-11-20T03:14:34;5.10;77.80
44063;DHT22;29727;47.606;19.130;2022-11-20T03:16:59;5.10;76.70
44063;DHT22;29727;47.606;19.130;2022-11-20T03:19:25;5.10;77.00
44063;DHT22;29727;47.606;19.130;2022-11-20T03:21:50;5.10;77.30
44063;DHT22;29727;47.606;19.130;2022-11-20T03:24:16;5.10;77.00
44063;DHT22;29727;47.606;19.130;2022-11-20T03:26:42;5.20;77.60
44063;DHT22;29727;47.606;19.130;2022-11-20T03:29:07;5.20;77.10
44063;DHT22;29727;47.606;19.130;2022-11-20T03:31:38;5.20;76.80
44063;DHT22;29727;47.606;19.130;2022-11-20T03:34:08;5.20;76.30
44063;DHT22;29727;47.606;19.130;2022-11-20T03:36:35;5.20;76.50
44063;DHT22;29727;47.606;19.130;2022-11-20T03:39:02;5.30;76.00
44063;DHT22;29727;47.606;19.130;2022-11-20T03:41:29;5.20;76.00
44063;DHT22;29727;47.606;19.130;2022-11-20T03:44:00;5.20;75.90
44063;DHT22;29727;47.606;19.130;2022-11-20T03:46:27;5.20;76.00
44063;DHT22;29727;47.606;19.130;2022-11-20T03:48:55;5.20;75.50
44063;DHT22;29727;47.606;19.130;2022-11-20T03:51:29;5.20;75.50
44063;DHT22;29727;47.606;19.130;2022-11-20T03:53:58;5.20;75.50
44063;DHT22;29727;47.606;19.130;2022-11-20T03:56:28;5.10;75.50
44063;DHT22;29727;47.606;19.130;2022-11-20T03:58:54;5.10;75.50
44063;DHT22;29727;47.606;19.130;2022-11-20T04:01:23;5.10;75.90
44063;DHT22;29727;47.606;19.130;2022-11-20T04:03:51;5.00;76.40
44063;DHT22;29727;47.606;19.130;2022-11-20T04:06:22;5.00;76.60
44063;DHT22;29727;47.606;19.130;2022-11-20T04:08:48;4.90;76.70
44063;DHT22;29727;47.606;19.130;2022-11-20T04:11:24;4.90;76.40
44063;DHT22;29727;47.606;19.130;2022-11-20T04:13:52;4.80;77.10
44063;DHT22;29727;47.606;19.130;2022-11-20T04:16:19;4.80;77.10
44063;DHT22;29727;47.606;19.130;2022-11-20T04:18:45;4.70;77.70
44063;DHT22;29727;47.606;19.130;2022-11-20T04:21:11;4.70;77.40
44063;DHT22;29727;47.606;19.130;2022-11-20T04:23:37;4.70;77.90
44063;DHT22;29727;47.606;19.130;2022-11-20T04:26:07;4.70;77.80
44063;DHT22;29727;47.606;19.130;2022-11-20T04:28:32;4.80;78.10
44063;DHT22;29727;47.606;19.130;2022-11-20T04:31:21;4.70;78.20
44063;DHT22;29727;47.606;19.130;2022-11-20T04:33:47;4.70;78.20
44063;DHT22;29727;47.606;19.130;2022-11-20T04:36:15;4.80;78.00
44063;DHT22;29727;47.606;19.130;2022-11-20T04:38:42;4.70;77.80
44063;DHT22;29727;47.606;19.130;2022-11-20T04:41:18;4.70;77.90
44063;DHT22;29727;47.606;19.130;2022-11-20T04:43:51;4.70;77.80
44063;DHT22;29727;47.606;19.130;2022-11-20T04:46:19;4.60;78.30
44063;DHT22;29727;47.606;19.130;2022-11-20T04:48:45;4.80;77.80
44063;DHT22;29727;47.606;19.130;2022-11-20T04:51:11;4.60;78.10
44063;DHT22;29727;47.606;19.130;2022-11-20T04:53:37;4.60;78.40
44063;DHT22;29727;47.606;19.130;2022-11-20T04:56:06;4.60;79.00
44063;DHT22;29727;47.606;19.130;2022-11-20T04:58:32;4.60;79.30
44063;DHT22;29727;47.606;19.130;2022-11-20T05:01:13;4.70;79.20
44063;DHT22;29727;47.606;19.130;2022-11-20T05:03:43;4.70;78.80
44063;DHT22;29727;47.606;19.130;2022-11-20T05:06:11;4.80;78.90
44063;DHT22;29727;47.606;19.130;2022-11-20T05:08:37;4.80;78.20
44063;DHT22;29727;47.606;19.130;2022-11-20T05:11:10;4.80;77.70
44063;DHT22;29727;47.606;19.130;2022-11-20T05:13:36;5.00;77.20
44063;DHT22;29727;47.606;19.130;2022-11-20T05:16:08;4.90;77.60
44063;DHT22;29727;47.606;19.130;2022-11-20T05:18:34;4.90;77.40
44063;DHT22;29727;47.606;19.130;2022-11-20T05:21:00;5.00;77.70
44063;DHT22;29727;47.606;19.130;2022-11-20T05:23:26;5.00;78.10
44063;DHT22;29727;47.606;19.130;2022-11-20T05:25:54;5.00;78.00
44063;DHT22;29727;47.606;19.130;2022-11-20T05:28:20;5.10;77.30
44063;DHT22;29727;47.606;19.130;2022-11-20T05:30:46;5.10;77.70
44063;DHT22;29727;47.606;19.130;2022-11-20T05:33:12;5.20;77.70
44063;DHT22;29727;47.606;19.130;2022-11-20T05:35:38;5.20;77.20
44063;DHT22;29727;47.606;19.130;2022-11-20T05:38:04;5.20;76.50
44063;DHT22;29727;47.606;19.130;2022-11-20T05:40:30;5.20;76.50
44063;DHT22;29727;47.606;19.130;2022-11-20T05:42:55;5.30;75.90
44063;DHT22;29727;47.606;19.130;2022-11-20T05:45:21;5.30;76.50
44063;DHT22;29727;47.606;19.130;2022-11-20T05:47:47;5.30;75.90
44063;DHT22;29727;47.606;19.130;2022-11-20T05:50:13;5.30;76.30
44063;DHT22;29727;47.606;19.130;2022-11-20T05:52:40;5.20;76.40
44063;DHT22;29727;47.606;19.130;2022-11-20T05:55:06;5.30;76.60
44063;DHT22;29727;47.606;19.130;2022-11-20T05:57:31;5.20;76.10
44063;DHT22;29727;47.606;19.130;2022-11-20T05:59:57;5.20;76.40
44063;DHT22;29727;47.606;19.130;2022-11-20T06:02:23;5.20;77.10
44063;DHT22;29727;47.606;19.130;2022-11-20T06:04:48;5.20;77.30
44063;DHT22;29727;47.606;19.130;2022-11-20T06:07:14;5.10;77.40
44063;DHT22;29727;47.606;19.130;2022-11-20T06:09:40;5.20;77.00
44063;DHT22;29727;47.606;19.130;2022-11-20T06:12:06;5.20;77.00
44063;DHT22;29727;47.606;19.130;2022-11-20T06:14:32;5.20;77.10
44063;DHT22;29727;47.606;19.130;2022-11-20T06:16:58;5.10;77.40
44063;DHT22;29727;47.606;19.130;2022-11-20T06:19:23;5.20;77.90
44063;DHT22;29727;47.606;19.130;2022-11-20T06:21:49;5.20;78.80
44063;DHT22;29727;47.606;19.130;2022-11-20T06:24:16;5.20;76.90
44063;DHT22;29727;47.606;19.130;2022-11-20T06:26:42;5.20;77.30
44063;DHT22;29727;47.606;19.130;2022-11-20T06:29:07;5.20;77.20
44063;DHT22;29727;47.606;19.130;2022-11-20T06:31:33;5.20;77.60
44063;DHT22;29727;47.606;19.130;2022-11-20T06:34:00;5.20;77.10
44063;DHT22;29727;47.606;19.130;2022-11-20T06:36:26;5.20;76.00
44063;DHT22;29727;47.606;19.130;2022-11-20T06:38:52;5.20;76.60
44063;DHT22;29727;47.606;19.130;2022-11-20T06:41:20;5.20;77.30
44063;DHT22;29727;47.606;19.130;2022-11-20T06:43:46;5.20;77.00
44063;DHT22;29727;47.606;19.130;2022-11-20T06:46:13;5.20;77.30
44063;DHT22;29727;47.606;19.130;2022-11-20T06:48:39;5.30;77.40
44063;DHT22;29727;47.606;19.130;2022-11-20T06:51:06;5.30;77.80
44063;DHT22;29727;47.606;19.130;2022-11-20T06:53:32;5.30;78.00
44063;DHT22;29727;47.606;19.130;2022-11-20T06:55:59;5.40;78.10
44063;DHT22;29727;47.606;19.130;2022-11-20T06:58:27;5.40;77.80
44063;DHT22;29727;47.606;19.130;2022-11-20T07:00:53;5.40;77.50
44063;DHT22;29727;47.606;19.130;2022-11-20T07:03:19;5.50;77.50
44063;DHT22;29727;47.606;19.130;2022-11-20T07:05:45;5.50;77.00
44063;DHT22;29727;47.606;19.130;2022-11-20T07:08:12;5.50;76.30
44063;DHT22;29727;47.606;19.130;2022-11-20T07:10:37;5.60;75.70
44063;DHT22;29727;47.606;19.130;2022-11-20T07:13:03;5.60;74.80
44063;DHT22;29727;47.606;19.130;2022-11-20T07:15:29;5.60;74.10
44063;DHT22;29727;47.606;19.130;2022-11-20T07:17:55;5.50;74.30
44063;DHT22;29727;47.606;19.130;2022-11-20T07:20:23;5.50;74.70
44063;DHT22;29727;47.606;19.130;2022-11-20T07:22:56;5.50;74.20
44063;DHT22;29727;47.606;19.130;2022-11-20T07:25:23;5.50;74.70
44063;DHT22;29727;47.606;19.130;2022-11-20T07:27:48;5.30;74.10
44063;DHT22;29727;47.606;19.130;2022-11-20T07:30:15;5.40;74.70
44063;DHT22;29727;47.606;19.130;2022-11-20T07:32:41;5.30;74.10
44063;DHT22;29727;47.606;19.130;2022-11-20T07:35:07;5.30;74.50
44063;DHT22;29727;47.606;19.130;2022-11-20T07:37:36;5.20;75.10
44063;DHT22;29727;47.606;19.130;2022-11-20T07:40:02;5.20;76.10
44063;DHT22;29727;47.606;19.130;2022-11-20T07:42:28;5.20;76.60
44063;DHT22;29727;47.606;19.130;2022-11-20T07:44:54;5.20;76.90
44063;DHT22;29727;47.606;19.130;2022-11-20T07:47:20;5.30;77.20
44063;DHT22;29727;47.606;19.130;2022-11-20T07:49:46;5.40;77.10
44063;DHT22;29727;47.606;19.130;2022-11-20T07:52:11;5.40;75.30
44063;DHT22;29727;47.606;19.130;2022-11-20T07:54:37;5.50;75.40
44063;DHT22;29727;47.606;19.130;2022-11-20T07:57:03;5.50;75.50
44063;DHT22;29727;47.606;19.130;2022-11-20T07:59:28;5.60;74.90
44063;DHT22;29727;47.606;19.130;2022-11-20T08:01:55;5.50;75.30
44063;DHT22;29727;47.606;19.130;2022-11-20T08:04:20;5.60;75.50
44063;DHT22;29727;47.606;19.130;2022-11-20T08:06:46;5.70;75.90
44063;DHT22;29727;47.606;19.130;2022-11-20T08:09:12;5.70;75.80
44063;DHT22;29727;47.606;19.130;2022-11-20T08:11:38;5.80;75.80
44063;DHT22;29727;47.606;19.130;2022-11-20T08:14:22;5.80;75.70
44063;DHT22;29727;47.606;19.130;2022-11-20T08:16:49;5.90;75.40
44063;DHT22;29727;47.606;19.130;2022-11-20T08:19:16;6.10;75.00
44063;DHT22;29727;47.606;19.130;2022-11-20T08:21:43;6.00;75.30
44063;DHT22;29727;47.606;19.130;2022-11-20T08:24:09;6.10;75.40
44063;DHT22;29727;47.606;19.130;2022-11-20T08:26:36;6.20;74.30
44063;DHT22;29727;47.606;19.130;2022-11-20T08:29:03;6.20;73.60
44063;DHT22;29727;47.606;19.130;2022-11-20T08:31:28;6.20;74.30
44063;DHT22;29727;47.606;19.130;2022-11-20T08:33:55;6.30;72.30
44063;DHT22;29727;47.606;19.130;2022-11-20T08:36:21;6.30;72.70
44063;DHT22;29727;47.606;19.130;2022-11-20T08:38:54;6.40;73.60
44063;DHT22;29727;47.606;19.130;2022-11-20T08:41:21;6.40;71.50
44063;DHT22;29727;47.606;19.130;2022-11-20T08:43:55;6.40;71.10
44063;DHT22;29727;47.606;19.130;2022-11-20T08:46:22;6.40;70.60
44063;DHT22;29727;47.606;19.130;2022-11-20T08:48:48;6.40;71.90
44063;DHT22;29727;47.606;19.130;2022-11-20T08:51:14;6.40;71.60
44063;DHT22;29727;47.606;19.130;2022-11-20T08:53:40;6.40;71.50
44063;DHT22;29727;47.606;19.130;2022-11-20T08:56:06;6.40;70.90
44063;DHT22;29727;47.606;19.130;2022-11-20T08:58:32;6.40;72.00
44063;DHT22;29727;47.606;19.130;2022-11-20T09:00:57;6.40;72.20
44063;DHT22;29727;47.606;19.130;2022-11-20T09:03:23;6.50;71.50
44063;DHT22;29727;47.606;19.130;2022-11-20T09:05:49;6.50;70.40
44063;DHT22;29727;47.606;19.130;2022-11-20T09:08:14;6.50;70.70
44063;DHT22;29727;47.606;19.130;2022-11-20T09:10:40;6.50;70.00
44063;DHT22;29727;47.606;19.130;2022-11-20T09:13:06;6.50;70.50
44063;DHT22;29727;47.606;19.130;2022-11-20T09:15:32;6.50;71.00
44063;DHT22;29727;47.606;19.130;2022-11-20T09:18:01;6.50;69.20
44063;DHT22;29727;47.606;19.130;2022-11-20T09:20:29;6.50;69.80
44063;DHT22;29727;47.606;19.130;2022-11-20T09:22:55;6.50;70.30
44063;DHT22;29727;47.606;19.130;2022-11-20T09:25:21;6.50;70.60
44063;DHT22;29727;47.606;19.130;2022-11-20T09:27:47;6.40;70.20
44063;DHT22;29727;47.606;19.130;2022-11-20T09:30:14;6.40;70.30
44063;DHT22;29727;47.606;19.130;2022-11-20T09:32:40;6.40;70.70
44063;DHT22;29727;47.606;19.130;2022-11-20T09:35:06;6.50;70.60
44063;DHT22;29727;47.606;19.130;2022-11-20T09:37:31;6.50;70.40
44063;DHT22;29727;47.606;19.130;2022-11-20T09:39:57;6.50;70.70
44063;DHT22;29727;47.606;19.130;2022-11-20T09:47:46;6.60;71.10
44063;DHT22;29727;47.606;19.130;2022-11-20T09:56:01;6.70;70.50
44063;DHT22;29727;47.606;19.130;2022-11-20T09:58:39;6.70;70.70
44063;DHT22;29727;47.606;19.130;2022-11-20T10:01:13;6.80;70.40
44063;DHT22;29727;47.606;19.130;2022-11-20T10:04:02;6.80;70.70
44063;DHT22;29727;47.606;19.130;2022-11-20T10:07:13;6.80;70.30
44063;DHT22;29727;47.606;19.130;2022-11-20T10:12:13;6.80;70.20
44063;DHT22;29727;47.606;19.130;2022-11-20T10:20:29;6.80;71.10
44063;DHT22;29727;47.606;19.130;2022-11-20T10:23:24;6.90;71.20
44063;DHT22;29727;47.606;19.130;2022-11-20T10:31:35;7.10;70.70
44063;DHT22;29727;47.606;19.130;2022-11-20T10:34:34;7.20;70.10
44063;DHT22;29727;47.606;19.130;2022-11-20T10:37:15;7.30;70.10
44063;DHT22;29727;47.606;19.130;2022-11-20T10:40:40;7.30;69.50
44063;DHT22;29727;47.606;19.130;2022-11-20T10:42:45;7.50;68.10
44063;DHT22;29727;47.606;19.130;2022-11-20T10:47:54;7.50;68.20
44063;DHT22;29727;47.606;19.130;2022-11-20T10:50:21;7.40;68.30
44063;DHT22;29727;47.606;19.130;2022-11-20T10:53:08;7.40;68.80
44063;DHT22;29727;47.606;19.130;2022-11-20T10:55:57;7.40;69.30
44063;DHT22;29727;47.606;19.130;2022-11-20T11:01:21;7.50;69.40
44063;DHT22;29727;47.606;19.130;2022-11-20T11:03:52;7.50;70.60
44063;DHT22;29727;47.606;19.130;2022-11-20T11:06:40;7.60;70.00
44063;DHT22;29727;47.606;19.130;2022-11-20T11:09:15;7.60;69.90
44063;DHT22;29727;47.606;19.130;2022-11-20T11:11:42;7.70;70.00
44063;DHT22;29727;47.606;19.130;2022-11-20T11:14:14;7.80;69.80
44063;DHT22;29727;47.606;19.130;2022-11-20T11:16:50;8.00;69.30
44063;DHT22;29727;47.606;19.130;2022-11-20T11:19:16;8.00;69.80
44063;DHT22;29727;47.606;19.130;2022-11-20T11:21:53;8.10;69.40
44063;DHT22;29727;47.606;19.130;2022-11-20T11:24:22;8.20;68.70
44063;DHT22;29727;47.606;19.130;2022-11-20T11:29:37;8.30;68.00
44063;DHT22;29727;47.606;19.130;2022-11-20T11:32:07;8.30;68.70
44063;DHT22;29727;47.606;19.130;2022-11-20T11:34:34;8.40;69.10
44063;DHT22;29727;47.606;19.130;2022-11-20T11:37:00;8.50;68.80
44063;DHT22;29727;47.606;19.130;2022-11-20T11:39:29;8.50;68.50
44063;DHT22;29727;47.606;19.130;2022-11-20T11:41:57;8.60;68.70
44063;DHT22;29727;47.606;19.130;2022-11-20T11:44:32;8.70;68.20
44063;DHT22;29727;47.606;19.130;2022-11-20T11:47:31;8.70;68.90
44063;DHT22;29727;47.606;19.130;2022-11-20T11:53:14;8.90;68.10
44063;DHT22;29727;47.606;19.130;2022-11-20T11:55:49;8.90;68.70
44063;DHT22;29727;47.606;19.130;2022-11-20T11:58:47;8.90;67.30
44063;DHT22;29727;47.606;19.130;2022-11-20T12:01:25;9.00;67.60
44063;DHT22;29727;47.606;19.130;2022-11-20T12:04:09;9.00;67.30
44063;DHT22;29727;47.606;19.130;2022-11-20T12:06:38;9.00;68.00
44063;DHT22;29727;47.606;19.130;2022-11-20T12:09:09;9.00;68.80
44063;DHT22;29727;47.606;19.130;2022-11-20T12:11:54;9.00;68.10
44063;DHT22;29727;47.606;19.130;2022-11-20T12:14:40;9.10;68.10
44063;DHT22;29727;47.606;19.130;2022-11-20T12:17:12;9.10;67.60
44063;DHT22;29727;47.606;19.130;2022-11-20T12:19:38;9.10;67.60
44063;DHT22;29727;47.606;19.130;2022-11-20T12:25:02;9.20;67.20
44063;DHT22;29727;47.606;19.130;2022-11-20T12:30:15;9.20;67.20
44063;DHT22;29727;47.606;19.130;2022-11-20T12:35:42;9.20;67.60
44063;DHT22;29727;47.606;19.130;2022-11-20T12:43:41;9.20;67.80
44063;DHT22;29727;47.606;19.130;2022-11-20T12:49:26;9.10;68.90
44063;DHT22;29727;47.606;19.130;2022-11-20T12:57:58;9.20;69.30
44063;DHT22;29727;47.606;19.130;2022-11-20T13:00:27;9.30;69.20
44063;DHT22;29727;47.606;19.130;2022-11-20T13:03:39;9.30;69.40
44063;DHT22;29727;47.606;19.130;2022-11-20T13:08:36;9.40;69.00
44063;DHT22;29727;47.606;19.130;2022-11-20T13:11:39;9.40;69.00
44063;DHT22;29727;47.606;19.130;2022-11-20T13:16:48;9.40;69.10
44063;DHT22;29727;47.606;19.130;2022-11-20T13:19:16;9.40;68.80
44063;DHT22;29727;47.606;19.130;2022-11-20T13:21:45;9.40;69.00
44063;DHT22;29727;47.606;19.130;2022-11-20T13:24:22;9.50;69.30
44063;DHT22;29727;47.606;19.130;2022-11-20T13:27:18;9.50;68.80
44063;DHT22;29727;47.606;19.130;2022-11-20T13:29:47;9.50;69.30
44063;DHT22;29727;47.606;19.130;2022-11-20T13:32:23;9.50;69.60
44063;DHT22;29727;47.606;19.130;2022-11-20T13:34:52;9.60;69.50
44063;DHT22;29727;47.606;19.130;2022-11-20T13:37:36;9.60;69.50
44063;DHT22;29727;47.606;19.130;2022-11-20T13:40:12;9.60;69.00
44063;DHT22;29727;47.606;19.130;2022-11-20T13:42:45;9.60;68.90
44063;DHT22;29727;47.606;19.130;2022-11-20T13:45:21;9.60;69.50
44063;DHT22;29727;47.606;19.130;2022-11-20T13:47:49;9.50;68.00
44063;DHT22;29727;47.606;19.130;2022-11-20T13:50:15;9.40;68.40
44063;DHT22;29727;47.606;19.130;2022-11-20T13:52:59;9.40;68.60
44063;DHT22;29727;47.606;19.130;2022-11-20T13:55:36;9.30;68.90
44063;DHT22;29727;47.606;19.130;2022-11-20T14:00:50;9.30;69.30
44063;DHT22;29727;47.606;19.130;2022-11-20T14:03:21;9.20;69.50
44063;DHT22;29727;47.606;19.130;2022-11-20T14:05:57;9.20;69.80
44063;DHT22;29727;47.606;19.130;2022-11-20T14:08:47;9.10;69.20
44063;DHT22;29727;47.606;19.130;2022-11-20T14:13:57;9.00;69.90
44063;DHT22;29727;47.606;19.130;2022-11-20T14:16:25;9.00;70.40
44063;DHT22;29727;47.606;19.130;2022-11-20T14:18:52;8.90;70.40
44063;DHT22;29727;47.606;19.130;2022-11-20T14:21:28;8.90;70.90
44063;DHT22;29727;47.606;19.130;2022-11-20T14:24:06;8.90;71.20
44063;DHT22;29727;47.606;19.130;2022-11-20T14:26:44;9.00;70.70
44063;DHT22;29727;47.606;19.130;2022-11-20T14:29:16;8.90;71.20
44063;DHT22;29727;47.606;19.130;2022-11-20T14:31:44;9.00;70.60
44063;DHT22;29727;47.606;19.130;2022-11-20T14:34:25;9.00;70.70
44063;DHT22;29727;47.606;19.130;2022-11-20T14:36:57;8.90;70.40
44063;DHT22;29727;47.606;19.130;2022-11-20T14:39:30;8.90;70.00
44063;DHT22;29727;47.606;19.130;2022-11-20T14:41:57;8.80;69.70
44063;DHT22;29727;47.606;19.130;2022-11-20T14:44:33;8.70;69.50
44063;DHT22;29727;47.606;19.130;2022-11-20T14:47:00;8.70;70.10
44063;DHT22;29727;47.606;19.130;2022-11-20T14:49:29;8.60;70.60
44063;DHT22;29727;47.606;19.130;2022-11-20T14:52:09;8.50;70.30
44063;DHT22;29727;47.606;19.130;2022-11-20T14:54:44;8.50;71.10
44063;DHT22;29727;47.606;19.130;2022-11-20T14:57:24;8.50;71.40
44063;DHT22;29727;47.606;19.130;2022-11-20T14:59:50;8.50;70.40
44063;DHT22;29727;47.606;19.130;2022-11-20T15:02:16;8.50;70.90
44063;DHT22;29727;47.606;19.130;2022-11-20T15:07:11;8.60;71.10
44063;DHT22;29727;47.606;19.130;2022-11-20T15:09:36;8.70;71.20
44063;DHT22;29727;47.606;19.130;2022-11-20T15:12:03;8.70;71.80
44063;DHT22;29727;47.606;19.130;2022-11-20T15:14:30;8.70;71.50
44063;DHT22;29727;47.606;19.130;2022-11-20T15:16:59;8.80;71.40
44063;DHT22;29727;47.606;19.130;2022-11-20T15:19:25;8.70;70.70
44063;DHT22;29727;47.606;19.130;2022-11-20T15:21:52;8.80;71.30
44063;DHT22;29727;47.606;19.130;2022-11-20T15:24:21;8.80;71.40
44063;DHT22;29727;47.606;19.130;2022-11-20T15:26:46;8.80;70.80
44063;DHT22;29727;47.606;19.130;2022-11-20T15:29:15;8.80;70.80
44063;DHT22;29727;47.606;19.130;2022-11-20T15:31:44;8.80;71.80
44063;DHT22;29727;47.606;19.130;2022-11-20T15:34:16;8.70;71.70
44063;DHT22;29727;47.606;19.130;2022-11-20T15:36:43;8.70;71.60
44063;DHT22;29727;47.606;19.130;2022-11-20T15:39:09;8.70;71.70
44063;DHT22;29727;47.606;19.130;2022-11-20T15:41:37;8.70;71.60
44063;DHT22;29727;47.606;19.130;2022-11-20T15:44:04;8.70;71.60
44063;DHT22;29727;47.606;19.130;2022-11-20T15:46:32;8.60;71.30
44063;DHT22;29727;47.606;19.130;2022-11-20T15:49:02;8.60;71.00
44063;DHT22;29727;47.606;19.130;2022-11-20T15:51:34;8.50;71.40
44063;DHT22;29727;47.606;19.130;2022-11-20T15:54:00;8.50;71.40
44063;DHT22;29727;47.606;19.130;2022-11-20T15:56:27;8.40;71.70
44063;DHT22;29727;47.606;19.130;2022-11-20T15:58:52;8.40;71.90
44063;DHT22;29727;47.606;19.130;2022-11-20T16:01:20;8.30;72.10
44063;DHT22;29727;47.606;19.130;2022-11-20T16:03:47;8.30;72.10
44063;DHT22;29727;47.606;19.130;2022-11-20T16:06:12;8.20;72.70
44063;DHT22;29727;47.606;19.130;2022-11-20T16:08:38;8.20;72.80
44063;DHT22;29727;47.606;19.130;2022-11-20T16:11:04;8.10;72.80
44063;DHT22;29727;47.606;19.130;2022-11-20T16:13:31;8.10;72.90
44063;DHT22;29727;47.606;19.130;2022-11-20T16:16:23;8.10;73.10
44063;DHT22;29727;47.606;19.130;2022-11-20T16:18:49;8.10;72.50
44063;DHT22;29727;47.606;19.130;2022-11-20T16:21:15;8.10;72.90
44063;DHT22;29727;47.606;19.130;2022-11-20T16:23:41;8.10;73.10
44063;DHT22;29727;47.606;19.130;2022-11-20T16:26:16;8.00;73.20
44063;DHT22;29727;47.606;19.130;2022-11-20T16:28:46;8.00;72.90
44063;DHT22;29727;47.606;19.130;2022-11-20T16:31:13;8.00;73.60
44063;DHT22;29727;47.606;19.130;2022-11-20T16:33:39;8.00;73.50
44063;DHT22;29727;47.606;19.130;2022-11-20T16:36:13;8.00;73.50
44063;DHT22;29727;47.606;19.130;2022-11-20T16:38:40;7.90;73.40
44063;DHT22;29727;47.606;19.130;2022-11-20T16:41:07;7.90;73.40
44063;DHT22;29727;47.606;19.130;2022-11-20T16:43:47;7.90;73.10
44063;DHT22;29727;47.606;19.130;2022-11-20T16:46:18;7.90;73.20
44063;DHT22;29727;47.606;19.130;2022-11-20T16:48:44;7.90;73.20
44063;DHT22;29727;47.606;19.130;2022-11-20T16:51:11;7.80;73.30
44063;DHT22;29727;47.606;19.130;2022-11-20T16:53:38;7.80;72.60
44063;DHT22;29727;47.606;19.130;2022-11-20T16:56:18;7.80;72.80
44063;DHT22;29727;47.606;19.130;2022-11-20T16:58:45;7.70;73.10
44063;DHT22;29727;47.606;19.130;2022-11-20T17:01:14;7.70;73.30